Time,TemperatureF,DewpointF,PressureIn,WindDirection,WindDirectionDegrees,WindSpeedMPH,WindSpeedGustMPH,Humidity,HourlyPrecipIn,Conditions,Clouds,dailyrainin,SoftwareType,DateUTC
2013-06-21 00:00:00,66.6,51.3,30.06,SW,225,0.0,0.0,58,0.00,,---,0.00,VWS V14.00,2013-06-21 04:00:00,
2013-06-21 00:01:00,66.4,51.6,30.06,WSW,248,0.9,1.1,59,0.00,,---,0.00,VWS V14.00,2013-06-21 04:01:00,
2013-06-21 00:03:00,66.4,51.2,30.06,SSW,202,1.3,2.2,58,0.00,,---,0.00,VWS V14.00,2013-06-21 04:03:00,
2013-06-21 00:04:00,66.4,51.2,30.06,WSW,248,2.0,2.0,58,0.00,,---,0.00,VWS V14.00,2013-06-21 04:04:00,
2013-06-21 00:08:00,66.4,51.6,30.06,SW,225,1.3,1.3,59,0.00,,---,0.00,VWS V14.00,2013-06-21 04:08:00,
2013-06-21 00:10:00,66.4,51.6,30.06,SW,225,2.5,2.5,59,0.00,,---,0.00,VWS V14.00,2013-06-21 04:10:00,
2013-06-21 00:15:00,66.2,51.5,30.06,WSW,248,2.5,2.5,59,0.00,,---,0.00,VWS V14.00,2013-06-21 04:15:00,
2013-06-21 00:21:00,66.2,51.5,30.06,WSW,248,1.1,2.0,59,0.00,,---,0.00,VWS V14.00,2013-06-21 04:21:00,
2013-06-21 00:26:00,66.2,51.5,30.06,WSW,248,1.6,2.0,59,0.00,,---,0.00,VWS V14.00,2013-06-21 04:26:00,
2013-06-21 00:32:00,66.2,51.5,30.06,WSW,248,0.0,1.6,59,0.00,,---,0.00,VWS V14.00,2013-06-21 04:32:00,
2013-06-21 00:37:00,66.0,51.8,30.06,SSW,202,1.1,1.1,60,0.00,,---,0.00,VWS V14.00,2013-06-21 04:37:00,
2013-06-21 00:42:00,66.0,51.8,30.06,SSW,202,0.0,0.0,60,0.00,,---,0.00,VWS V14.00,2013-06-21 04:42:00,
2013-06-21 00:47:00,65.7,51.9,30.06,WNW,292,0.0,0.0,61,0.00,,---,0.00,VWS V14.00,2013-06-21 04:47:00,
2013-06-21 00:53:00,65.5,51.7,30.06,WSW,248,0.0,0.0,61,0.00,,---,0.00,VWS V14.00,2013-06-21 04:53:00,
2013-06-21 00:58:00,64.9,51.6,30.06,WNW,292,1.3,1.3,62,0.00,,---,0.00,VWS V14.00,2013-06-21 04:58:00,
2013-06-21 01:04:00,64.8,51.9,30.06,WSW,248,0.0,0.0,63,0.00,,---,0.00,VWS V14.00,2013-06-21 05:04:00,
2013-06-21 01:09:00,64.6,51.7,30.06,WNW,292,0.0,0.0,63,0.00,,---,0.00,VWS V14.00,2013-06-21 05:09:00,
2013-06-21 01:14:00,64.4,51.5,30.09,West,270,0.0,0.0,63,0.00,,---,0.00,VWS V14.00,2013-06-21 05:14:00,
2013-06-21 01:19:00,64.0,51.2,30.09,NNW,338,0.0,0.0,63,0.00,,---,0.00,VWS V14.00,2013-06-21 05:19:00,
2013-06-21 01:24:00,63.7,51.3,30.09,NNW,338,0.0,0.0,64,0.00,,---,0.00,VWS V14.00,2013-06-21 05:24:00,
2013-06-21 01:30:00,63.7,51.3,30.09,West,270,0.0,0.0,64,0.00,,---,0.00,VWS V14.00,2013-06-21 05:30:00,
2013-06-21 01:35:00,63.5,51.5,30.09,West,270,0.0,0.0,65,0.00,,---,0.00,VWS V14.00,2013-06-21 05:35:00,
2013-06-21 01:40:00,63.3,51.4,30.09,NW,315,0.0,0.0,65,0.00,,---,0.00,VWS V14.00,2013-06-21 05:40:00,
2013-06-21 01:45:00,63.3,51.8,30.09,WNW,292,1.6,1.6,66,0.00,,---,0.00,VWS V14.00,2013-06-21 05:45:00,
2013-06-21 01:50:00,63.5,51.5,30.09,WSW,248,2.0,2.0,65,0.00,,---,0.00,VWS V14.00,2013-06-21 05:50:00,
2013-06-21 01:55:00,63.5,51.5,30.09,WSW,248,1.1,1.3,65,0.00,,---,0.00,VWS V14.00,2013-06-21 05:55:00,
2013-06-21 02:00:00,63.5,52.0,30.09,West,270,2.2,2.2,66,0.00,,---,0.00,VWS V14.00,2013-06-21 06:00:00,
2013-06-21 02:06:00,63.3,51.8,30.09,WNW,292,3.4,3.4,66,0.00,,---,0.00,VWS V14.00,2013-06-21 06:06:00,
2013-06-21 02:12:00,63.1,51.6,30.09,WNW,292,1.6,2.0,66,0.00,,---,0.00,VWS V14.00,2013-06-21 06:12:00,
2013-06-21 02:17:00,63.0,51.4,30.09,WSW,248,0.0,0.9,66,0.00,,---,0.00,VWS V14.00,2013-06-21 06:17:00,
2013-06-21 02:23:00,63.0,51.8,30.09,WSW,248,1.1,1.1,67,0.00,,---,0.00,VWS V14.00,2013-06-21 06:23:00,
2013-06-21 02:28:00,62.8,52.1,30.09,West,270,1.1,1.3,68,0.00,,---,0.00,VWS V14.00,2013-06-21 06:28:00,
2013-06-21 02:34:00,62.6,51.9,30.09,SW,225,2.7,2.9,68,0.00,,---,0.00,VWS V14.00,2013-06-21 06:34:00,
2013-06-21 02:39:00,62.6,51.9,30.09,West,270,2.0,2.5,68,0.00,,---,0.00,VWS V14.00,2013-06-21 06:39:00,
2013-06-21 02:45:00,62.4,52.1,30.09,WSW,248,2.5,2.5,69,0.00,,---,0.00,VWS V14.00,2013-06-21 06:45:00,
2013-06-21 02:50:00,62.4,52.1,30.09,WNW,292,2.2,2.2,69,0.00,,---,0.00,VWS V14.00,2013-06-21 06:50:00,
2013-06-21 02:56:00,62.2,52.3,30.09,WSW,248,2.2,2.2,70,0.00,,---,0.00,VWS V14.00,2013-06-21 06:56:00,
2013-06-21 03:01:00,62.1,52.2,30.09,WSW,248,2.0,2.5,70,0.00,,---,0.00,VWS V14.00,2013-06-21 07:01:00,
2013-06-21 03:07:00,62.2,52.3,30.09,WSW,248,1.6,1.6,70,0.00,,---,0.00,VWS V14.00,2013-06-21 07:07:00,
2013-06-21 03:12:00,62.1,52.2,30.09,WSW,248,1.3,2.2,70,0.00,,---,0.00,VWS V14.00,2013-06-21 07:12:00,
2013-06-21 03:17:00,62.1,52.2,30.09,WNW,292,2.5,2.5,70,0.00,,---,0.00,VWS V14.00,2013-06-21 07:17:00,
2013-06-21 03:22:00,61.9,52.0,30.09,WSW,248,2.0,2.0,70,0.00,,---,0.00,VWS V14.00,2013-06-21 07:22:00,
2013-06-21 03:28:00,61.9,52.0,30.09,WSW,248,2.0,2.0,70,0.00,,---,0.00,VWS V14.00,2013-06-21 07:28:00,
2013-06-21 03:33:00,61.9,52.4,30.09,WSW,248,1.6,2.0,71,0.00,,---,0.00,VWS V14.00,2013-06-21 07:33:00,
2013-06-21 03:39:00,61.7,52.2,30.09,WSW,248,2.5,2.5,71,0.00,,---,0.00,VWS V14.00,2013-06-21 07:39:00,
2013-06-21 03:44:00,61.7,52.2,30.09,WSW,248,2.7,2.7,71,0.00,,---,0.00,VWS V14.00,2013-06-21 07:44:00,
2013-06-21 03:49:00,61.7,52.2,30.09,WSW,248,2.0,2.7,71,0.00,,---,0.00,VWS V14.00,2013-06-21 07:49:00,
2013-06-21 03:54:00,61.7,52.2,30.09,WSW,248,2.2,2.7,71,0.00,,---,0.00,VWS V14.00,2013-06-21 07:54:00,
2013-06-21 03:59:00,61.5,52.0,30.09,West,270,2.0,2.0,71,0.00,,---,0.00,VWS V14.00,2013-06-21 07:59:00,
2013-06-21 04:04:00,61.5,52.0,30.09,WSW,248,1.1,1.1,71,0.00,,---,0.00,VWS V14.00,2013-06-21 08:04:00,
2013-06-21 04:09:00,61.3,51.9,30.09,WSW,248,2.0,2.0,71,0.00,,---,0.00,VWS V14.00,2013-06-21 08:09:00,
2013-06-21 04:14:00,61.5,52.0,30.09,WSW,248,2.0,2.2,71,0.00,,---,0.00,VWS V14.00,2013-06-21 08:14:00,
2013-06-21 04:19:00,61.5,52.0,30.09,West,270,2.9,2.9,71,0.00,,---,0.00,VWS V14.00,2013-06-21 08:19:00,
2013-06-21 04:24:00,61.5,52.0,30.09,WSW,248,1.3,2.0,71,0.00,,---,0.00,VWS V14.00,2013-06-21 08:24:00,
2013-06-21 04:30:00,61.5,52.0,30.09,WSW,248,2.7,2.7,71,0.00,,---,0.00,VWS V14.00,2013-06-21 08:30:00,
2013-06-21 04:35:00,61.5,52.4,30.09,WSW,248,2.2,2.2,72,0.00,,---,0.00,VWS V14.00,2013-06-21 08:35:00,
2013-06-21 04:41:00,61.5,52.4,30.09,WSW,248,2.0,2.0,72,0.00,,---,0.00,VWS V14.00,2013-06-21 08:41:00,
2013-06-21 04:46:00,61.7,52.6,30.09,WSW,248,2.9,2.9,72,0.00,,---,0.00,VWS V14.00,2013-06-21 08:46:00,
2013-06-21 04:51:00,61.7,52.6,30.09,WSW,248,2.2,2.9,72,0.00,,---,0.00,VWS V14.00,2013-06-21 08:51:00,
2013-06-21 04:56:00,61.7,52.6,30.09,West,270,2.7,3.6,72,0.00,,---,0.00,VWS V14.00,2013-06-21 08:56:00,
2013-06-21 05:02:00,61.7,52.6,30.09,WSW,248,3.1,3.1,72,0.00,,---,0.00,VWS V14.00,2013-06-21 09:02:00,
2013-06-21 05:07:00,61.7,52.6,30.09,WSW,248,2.2,2.2,72,0.00,,---,0.00,VWS V14.00,2013-06-21 09:07:00,
2013-06-21 05:12:00,61.7,53.0,30.09,WSW,248,2.5,2.5,73,0.00,,---,0.00,VWS V14.00,2013-06-21 09:12:00,
2013-06-21 05:17:00,61.5,52.4,30.09,WSW,248,2.7,2.7,72,0.00,,---,0.00,VWS V14.00,2013-06-21 09:17:00,
2013-06-21 05:22:00,61.5,52.4,30.09,SW,225,2.2,2.7,72,0.00,,---,0.00,VWS V14.00,2013-06-21 09:22:00,
2013-06-21 05:28:00,61.5,52.8,30.09,WSW,248,2.0,2.5,73,0.00,,---,0.00,VWS V14.00,2013-06-21 09:28:00,
2013-06-21 05:33:00,61.3,52.6,30.09,West,270,1.1,2.2,73,0.00,,---,0.00,VWS V14.00,2013-06-21 09:33:00,
2013-06-21 05:38:00,61.3,52.6,30.09,WSW,248,2.5,2.7,73,0.00,,---,0.00,VWS V14.00,2013-06-21 09:38:00,
2013-06-21 05:43:00,61.3,52.6,30.12,WSW,248,1.6,1.6,73,0.00,,---,0.00,VWS V14.00,2013-06-21 09:43:00,
2013-06-21 05:48:00,61.2,52.5,30.12,WNW,292,1.1,1.1,73,0.00,,---,0.00,VWS V14.00,2013-06-21 09:48:00,
2013-06-21 05:54:00,61.0,52.3,30.12,WSW,248,0.0,0.0,73,0.00,,---,0.00,VWS V14.00,2013-06-21 09:54:00,
2013-06-21 05:59:00,61.2,53.2,30.12,WSW,248,2.0,2.0,75,0.00,,---,0.00,VWS V14.00,2013-06-21 09:59:00,
2013-06-21 06:04:00,61.3,53.4,30.12,WSW,248,1.1,1.1,75,0.00,,---,0.00,VWS V14.00,2013-06-21 10:04:00,
2013-06-21 06:09:00,61.3,53.4,30.12,WSW,248,0.0,1.1,75,0.00,,---,0.00,VWS V14.00,2013-06-21 10:09:00,
2013-06-21 06:14:00,61.2,53.2,30.12,WSW,248,0.0,0.0,75,0.00,,---,0.00,VWS V14.00,2013-06-21 10:14:00,
2013-06-21 06:20:00,61.3,53.4,30.12,WSW,248,0.9,1.6,75,0.00,,---,0.00,VWS V14.00,2013-06-21 10:20:00,
2013-06-21 06:25:00,61.3,53.7,30.12,WSW,248,0.0,0.0,76,0.00,,---,0.00,VWS V14.00,2013-06-21 10:25:00,
2013-06-21 06:30:00,61.3,53.4,30.12,WSW,248,1.1,2.0,75,0.00,,---,0.00,VWS V14.00,2013-06-21 10:30:00,
2013-06-21 06:36:00,61.3,53.4,30.12,WNW,292,0.0,0.0,75,0.00,,---,0.00,VWS V14.00,2013-06-21 10:36:00,
2013-06-21 06:41:00,61.7,53.7,30.12,WSW,248,1.1,1.1,75,0.00,,---,0.00,VWS V14.00,2013-06-21 10:41:00,
2013-06-21 06:46:00,61.7,53.7,30.12,WSW,248,0.0,0.0,75,0.00,,---,0.00,VWS V14.00,2013-06-21 10:46:00,
2013-06-21 06:51:00,62.1,54.0,30.12,WSW,248,1.6,1.6,75,0.00,,---,0.00,VWS V14.00,2013-06-21 10:51:00,
2013-06-21 06:56:00,62.2,54.2,30.12,WSW,248,2.5,2.5,75,0.00,,---,0.00,VWS V14.00,2013-06-21 10:56:00,
2013-06-21 07:01:00,62.4,54.4,30.12,WSW,248,1.1,1.3,75,0.00,,---,0.00,VWS V14.00,2013-06-21 11:01:00,
2013-06-21 07:06:00,62.8,55.8,30.12,West,270,2.9,2.9,78,0.00,,---,0.00,VWS V14.00,2013-06-21 11:06:00,
2013-06-21 07:11:00,63.0,56.0,30.12,SW,225,2.0,2.2,78,0.00,,---,0.00,VWS V14.00,2013-06-21 11:11:00,
2013-06-21 07:16:00,63.0,56.3,30.15,SW,225,1.6,2.0,79,0.00,,---,0.00,VWS V14.00,2013-06-21 11:16:00,
2013-06-21 07:22:00,63.1,56.2,30.15,SW,225,2.5,2.5,78,0.00,,---,0.00,VWS V14.00,2013-06-21 11:22:00,
2013-06-21 07:27:00,63.5,56.2,30.15,WNW,292,2.9,3.4,77,0.00,,---,0.00,VWS V14.00,2013-06-21 11:27:00,
2013-06-21 07:32:00,63.7,56.0,30.15,WSW,248,1.3,1.6,76,0.00,,---,0.00,VWS V14.00,2013-06-21 11:32:00,
2013-06-21 07:37:00,63.7,56.0,30.15,WSW,248,2.0,3.6,76,0.00,,---,0.00,VWS V14.00,2013-06-21 11:37:00,
2013-06-21 07:42:00,64.2,55.4,30.15,WSW,248,1.1,1.3,73,0.00,,---,0.00,VWS V14.00,2013-06-21 11:42:00,
2013-06-21 07:47:00,64.4,55.2,30.15,WSW,248,2.5,2.5,72,0.00,,---,0.00,VWS V14.00,2013-06-21 11:47:00,
2013-06-21 07:52:00,64.6,55.0,30.15,West,270,2.5,2.5,71,0.00,,---,0.00,VWS V14.00,2013-06-21 11:52:00,
2013-06-21 07:57:00,64.9,54.9,30.15,WNW,292,2.0,2.0,70,0.00,,---,0.00,VWS V14.00,2013-06-21 11:57:00,
2013-06-21 08:03:00,65.3,54.5,30.15,WSW,248,2.2,2.2,68,0.00,,---,0.00,VWS V14.00,2013-06-21 12:03:00,
2013-06-21 08:08:00,65.5,55.5,30.15,WSW,248,1.1,1.6,70,0.00,,---,0.00,VWS V14.00,2013-06-21 12:08:00,
2013-06-21 08:13:00,65.7,55.2,30.15,SE,135,0.0,1.3,69,0.00,,---,0.00,VWS V14.00,2013-06-21 12:13:00,
2013-06-21 08:18:00,66.2,55.3,30.15,NNW,338,1.1,2.0,68,0.00,,---,0.00,VWS V14.00,2013-06-21 12:18:00,
2013-06-21 08:23:00,66.6,54.9,30.15,WSW,248,0.0,2.0,66,0.00,,---,0.00,VWS V14.00,2013-06-21 12:23:00,
2013-06-21 08:28:00,66.9,55.2,30.15,WNW,292,0.9,0.9,66,0.00,,---,0.00,VWS V14.00,2013-06-21 12:28:00,
2013-06-21 08:34:00,67.1,54.5,30.15,WNW,292,3.8,3.8,64,0.00,,---,0.00,VWS V14.00,2013-06-21 12:34:00,
2013-06-21 08:39:00,67.5,54.0,30.15,NW,315,2.9,2.9,62,0.00,,---,0.00,VWS V14.00,2013-06-21 12:39:00,
2013-06-21 08:44:00,67.5,52.7,30.15,NW,315,0.0,3.6,59,0.00,,---,0.00,VWS V14.00,2013-06-21 12:44:00,
2013-06-21 08:50:00,68.0,54.1,30.15,WSW,248,1.1,2.2,61,0.00,,---,0.00,VWS V14.00,2013-06-21 12:50:00,
2013-06-21 08:55:00,68.9,54.5,30.15,NW,315,1.1,1.6,60,0.00,,---,0.00,VWS V14.00,2013-06-21 12:55:00,
2013-06-21 09:00:00,70.5,54.6,30.15,SSW,202,1.6,2.5,57,0.00,,---,0.00,VWS V14.00,2013-06-21 13:00:00,
2013-06-21 09:05:00,72.0,55.4,30.15,SSE,158,0.0,1.3,56,0.00,,---,0.00,VWS V14.00,2013-06-21 13:05:00,
2013-06-21 09:10:00,71.8,54.3,30.15,SSE,158,0.9,0.9,54,0.00,,---,0.00,VWS V14.00,2013-06-21 13:10:00,
2013-06-21 09:16:00,72.0,53.4,30.15,WNW,292,0.0,2.5,52,0.00,,---,0.00,VWS V14.00,2013-06-21 13:16:00,
2013-06-21 09:21:00,71.8,54.8,30.15,WSW,248,2.9,2.9,55,0.00,,---,0.00,VWS V14.00,2013-06-21 13:21:00,
2013-06-21 09:26:00,72.3,54.2,30.15,ENE,68,0.0,1.1,53,0.00,,---,0.00,VWS V14.00,2013-06-21 13:26:00,
2013-06-21 09:31:00,72.7,55.6,30.15,South,180,2.2,2.2,55,0.00,,---,0.00,VWS V14.00,2013-06-21 13:31:00,
2013-06-21 09:36:00,72.9,50.3,30.15,NNW,338,2.9,3.1,45,0.00,,---,0.00,VWS V14.00,2013-06-21 13:36:00,
2013-06-21 09:41:00,72.3,51.0,30.15,NNE,22,2.7,2.7,47,0.00,,---,0.00,VWS V14.00,2013-06-21 13:41:00,
2013-06-21 09:46:00,72.3,51.0,30.15,NNW,338,1.3,1.3,47,0.00,,---,0.00,VWS V14.00,2013-06-21 13:46:00,
2013-06-21 09:51:00,72.7,52.4,30.15,WSW,248,1.3,1.3,49,0.00,,---,0.00,VWS V14.00,2013-06-21 13:51:00,
2013-06-21 09:56:00,73.0,55.9,30.15,WSW,248,2.9,2.9,55,0.00,,---,0.00,VWS V14.00,2013-06-21 13:56:00,
2013-06-21 10:01:00,73.0,49.9,30.12,SSW,202,2.5,2.5,44,0.00,,---,0.00,VWS V14.00,2013-06-21 14:01:00,
2013-06-21 10:07:00,75.9,54.3,30.12,NW,315,2.9,2.9,47,0.00,,---,0.00,VWS V14.00,2013-06-21 14:07:00,
2013-06-21 10:13:00,76.5,55.3,30.12,WSW,248,2.0,3.8,48,0.00,,---,0.00,VWS V14.00,2013-06-21 14:13:00,
2013-06-21 10:18:00,77.7,54.7,30.12,WNW,292,2.9,2.9,45,0.00,,---,0.00,VWS V14.00,2013-06-21 14:18:00,
2013-06-21 10:24:00,78.6,53.6,30.12,West,270,2.9,4.3,42,0.00,,---,0.00,VWS V14.00,2013-06-21 14:24:00,
2013-06-21 10:29:00,79.0,54.6,30.12,WNW,292,2.5,2.5,43,0.00,,---,0.00,VWS V14.00,2013-06-21 14:29:00,
2013-06-21 10:34:00,80.4,55.9,30.12,SSE,158,0.0,2.0,43,0.00,,---,0.00,VWS V14.00,2013-06-21 14:34:00,
2013-06-21 10:39:00,81.5,56.9,30.12,NNW,338,2.2,2.2,43,0.00,,---,0.00,VWS V14.00,2013-06-21 14:39:00,
2013-06-21 10:45:00,81.7,56.4,30.12,WSW,248,2.0,2.0,42,0.00,,---,0.00,VWS V14.00,2013-06-21 14:45:00,
2013-06-21 10:50:00,82.0,55.4,30.12,ESE,112,2.2,2.2,40,0.00,,---,0.00,VWS V14.00,2013-06-21 14:50:00,
2013-06-21 10:55:00,82.2,56.9,30.12,South,180,0.9,0.9,42,0.00,,---,0.00,VWS V14.00,2013-06-21 14:55:00,
2013-06-21 11:00:00,82.6,57.2,30.12,East,90,0.9,0.9,42,0.00,,---,0.00,VWS V14.00,2013-06-21 15:00:00,
2013-06-21 11:06:00,82.8,58.0,30.12,WSW,248,1.3,2.7,43,0.00,,---,0.00,VWS V14.00,2013-06-21 15:06:00,
2013-06-21 11:12:00,82.9,57.5,30.12,WSW,248,1.6,1.6,42,0.00,,---,0.00,VWS V14.00,2013-06-21 15:12:00,
2013-06-21 11:17:00,83.3,59.1,30.15,WSW,248,1.1,2.7,44,0.00,,---,0.00,VWS V14.00,2013-06-21 15:17:00,
2013-06-21 11:23:00,83.5,58.0,30.15,WSW,248,3.4,3.4,42,0.00,,---,0.00,VWS V14.00,2013-06-21 15:23:00,
2013-06-21 11:28:00,83.7,58.2,30.15,SSW,202,1.1,1.1,42,0.00,,---,0.00,VWS V14.00,2013-06-21 15:28:00,
2013-06-21 11:33:00,83.5,58.0,30.15,SW,225,1.3,1.3,42,0.00,,---,0.00,VWS V14.00,2013-06-21 15:33:00,
2013-06-21 11:38:00,84.2,59.3,30.15,WNW,292,2.0,2.0,43,0.00,,---,0.00,VWS V14.00,2013-06-21 15:38:00,
2013-06-21 11:44:00,84.4,58.8,30.15,SSW,202,1.3,1.3,42,0.00,,---,0.00,VWS V14.00,2013-06-21 15:44:00,
2013-06-21 11:49:00,85.1,59.5,30.15,WSW,248,1.6,2.5,42,0.00,,---,0.00,VWS V14.00,2013-06-21 15:49:00,
2013-06-21 11:55:00,85.3,60.3,30.15,SW,225,2.7,2.9,43,0.00,,---,0.00,VWS V14.00,2013-06-21 15:55:00,
2013-06-21 12:00:00,85.5,59.1,30.15,SW,225,2.7,3.1,41,0.00,,---,0.00,VWS V14.00,2013-06-21 16:00:00,
2013-06-21 12:06:00,85.5,59.1,30.15,ESE,112,0.0,2.2,41,0.00,,---,0.00,VWS V14.00,2013-06-21 16:06:00,
2013-06-21 12:11:00,83.8,58.3,30.15,WNW,292,1.1,1.1,42,0.00,,---,0.00,VWS V14.00,2013-06-21 16:11:00,
2013-06-21 12:17:00,85.5,59.8,30.15,WSW,248,3.1,3.1,42,0.00,,---,0.00,VWS V14.00,2013-06-21 16:17:00,
2013-06-21 12:22:00,85.3,58.9,30.15,SSW,202,1.3,1.3,41,0.00,,---,0.00,VWS V14.00,2013-06-21 16:22:00,
2013-06-21 12:27:00,86.0,58.2,30.15,SW,225,3.1,3.1,39,0.00,,---,0.00,VWS V14.00,2013-06-21 16:27:00,
2013-06-21 12:32:00,86.2,58.3,30.15,SSW,202,2.9,2.9,39,0.00,,---,0.00,VWS V14.00,2013-06-21 16:32:00,
2013-06-21 12:37:00,86.4,57.0,30.15,WSW,248,2.0,2.0,37,0.00,,---,0.00,VWS V14.00,2013-06-21 16:37:00,
2013-06-21 12:43:00,86.4,57.0,30.15,SW,225,0.9,2.5,37,0.00,,---,0.00,VWS V14.00,2013-06-21 16:43:00,
2013-06-21 12:48:00,86.4,57.0,30.15,SW,225,1.6,1.6,37,0.00,,---,0.00,VWS V14.00,2013-06-21 16:48:00,
2013-06-21 12:53:00,86.5,57.2,30.15,SSW,202,1.6,2.0,37,0.00,,---,0.00,VWS V14.00,2013-06-21 16:53:00,
2013-06-21 12:59:00,86.5,56.4,30.15,SW,225,3.1,3.1,36,0.00,,---,0.00,VWS V14.00,2013-06-21 16:59:00,
2013-06-21 13:04:00,86.7,56.6,30.15,SSW,202,1.1,1.1,36,0.00,,---,0.00,VWS V14.00,2013-06-21 17:04:00,
2013-06-21 13:09:00,86.9,57.5,30.15,WSW,248,1.3,2.7,37,0.00,,---,0.00,VWS V14.00,2013-06-21 17:09:00,
2013-06-21 13:15:00,87.1,58.4,30.15,SSW,202,0.9,2.0,38,0.00,,---,0.00,VWS V14.00,2013-06-21 17:15:00,
2013-06-21 13:20:00,86.9,56.8,30.15,SSW,202,2.7,2.7,36,0.00,,---,0.00,VWS V14.00,2013-06-21 17:20:00,
2013-06-21 13:26:00,86.5,55.7,30.15,SSW,202,3.1,3.1,35,0.00,,---,0.00,VWS V14.00,2013-06-21 17:26:00,
2013-06-21 13:31:00,86.7,55.0,30.15,SSW,202,2.0,2.7,34,0.00,,---,0.00,VWS V14.00,2013-06-21 17:31:00,
2013-06-21 13:36:00,86.2,54.5,30.15,SSW,202,2.2,2.2,34,0.00,,---,0.00,VWS V14.00,2013-06-21 17:36:00,
2013-06-21 13:41:00,86.2,54.5,30.15,SW,225,2.0,3.8,34,0.00,,---,0.00,VWS V14.00,2013-06-21 17:41:00,
2013-06-21 13:47:00,86.4,54.7,30.15,SSW,202,2.0,2.0,34,0.00,,---,0.00,VWS V14.00,2013-06-21 17:47:00,
2013-06-21 13:48:00,86.5,54.9,30.15,SW,225,3.6,3.6,34,0.00,,---,0.00,VWS V14.00,2013-06-21 17:48:00,
2013-06-21 13:49:00,86.5,54.9,30.15,WSW,248,3.8,3.8,34,0.00,,---,0.00,VWS V14.00,2013-06-21 17:49:00,
2013-06-21 13:50:00,86.0,53.6,30.15,SW,225,2.2,3.8,33,0.00,,---,0.00,VWS V14.00,2013-06-21 17:50:00,
2013-06-21 13:53:00,86.2,54.5,30.15,WSW,248,3.1,3.1,34,0.00,,---,0.00,VWS V14.00,2013-06-21 17:53:00,
2013-06-21 13:59:00,86.2,55.3,30.12,SSW,202,1.3,1.3,35,0.00,,---,0.00,VWS V14.00,2013-06-21 17:59:00,
2013-06-21 14:05:00,86.0,53.6,30.12,SW,225,4.0,4.0,33,0.00,,---,0.00,VWS V14.00,2013-06-21 18:05:00,
2013-06-21 14:11:00,85.6,53.3,30.12,WSW,248,2.7,2.7,33,0.00,,---,0.00,VWS V14.00,2013-06-21 18:11:00,
2013-06-21 14:18:00,85.1,52.8,30.12,SSW,202,1.1,3.4,33,0.00,,---,0.00,VWS V14.00,2013-06-21 18:18:00,
2013-06-21 14:23:00,84.6,52.3,30.12,SSE,158,2.2,3.6,33,0.00,,---,0.00,VWS V14.00,2013-06-21 18:23:00,
2013-06-21 14:24:00,84.6,52.3,30.12,SSW,202,0.9,2.2,33,0.00,,---,0.00,VWS V14.00,2013-06-21 18:24:00,
2013-06-21 14:27:00,84.2,52.0,30.12,SE,135,1.3,3.1,33,0.00,,---,0.00,VWS V14.00,2013-06-21 18:27:00,
2013-06-21 14:31:00,84.4,52.2,30.12,SW,225,2.5,2.5,33,0.00,,---,0.00,VWS V14.00,2013-06-21 18:31:00,
2013-06-21 14:33:00,84.7,53.3,30.12,ESE,112,2.5,2.5,34,0.00,,---,0.00,VWS V14.00,2013-06-21 18:33:00,
2013-06-21 14:38:00,84.7,54.1,30.12,SW,225,1.3,2.5,35,0.00,,---,0.00,VWS V14.00,2013-06-21 18:38:00,
2013-06-21 14:43:00,84.9,54.2,30.12,SW,225,3.1,3.1,35,0.00,,---,0.00,VWS V14.00,2013-06-21 18:43:00,
2013-06-21 14:45:00,84.6,53.9,30.12,SW,225,4.3,5.4,35,0.00,,---,0.00,VWS V14.00,2013-06-21 18:45:00,
2013-06-21 14:46:00,84.4,53.8,30.12,WNW,292,3.8,4.3,35,0.00,,---,0.00,VWS V14.00,2013-06-21 18:46:00,
2013-06-21 14:47:00,84.4,53.8,30.12,WNW,292,3.1,3.8,35,0.00,,---,0.00,VWS V14.00,2013-06-21 18:47:00,
2013-06-21 14:48:00,84.2,53.6,30.12,SSW,202,2.0,3.1,35,0.00,,---,0.00,VWS V14.00,2013-06-21 18:48:00,
2013-06-21 14:51:00,84.0,54.2,30.12,SSE,158,2.0,2.0,36,0.00,,---,0.00,VWS V14.00,2013-06-21 18:51:00,
2013-06-21 14:56:00,83.8,54.1,30.12,SSW,202,2.0,2.5,36,0.00,,---,0.00,VWS V14.00,2013-06-21 18:56:00,
2013-06-21 15:02:00,83.7,53.9,30.12,WNW,292,3.8,3.8,36,0.00,,---,0.00,VWS V14.00,2013-06-21 19:02:00,
2013-06-21 15:07:00,83.7,53.9,30.12,SSW,202,2.2,2.2,36,0.00,,---,0.00,VWS V14.00,2013-06-21 19:07:00,
2013-06-21 15:12:00,83.7,53.1,30.12,SW,225,3.6,3.6,35,0.00,,---,0.00,VWS V14.00,2013-06-21 19:12:00,
2013-06-21 15:18:00,82.9,52.5,30.09,SSW,202,3.8,3.8,35,0.00,,---,0.00,VWS V14.00,2013-06-21 19:18:00,
2013-06-21 15:24:00,83.5,54.5,30.09,WSW,248,2.5,2.5,37,0.00,,---,0.00,VWS V14.00,2013-06-21 19:24:00,
2013-06-21 15:27:00,83.7,55.4,30.09,SSW,202,2.9,2.9,38,0.00,,---,0.00,VWS V14.00,2013-06-21 19:27:00,
2013-06-21 15:32:00,83.5,54.5,30.12,WNW,292,3.6,3.6,37,0.00,,---,0.00,VWS V14.00,2013-06-21 19:32:00,
2013-06-21 15:38:00,83.1,54.2,30.12,SSW,202,1.6,2.2,37,0.00,,---,0.00,VWS V14.00,2013-06-21 19:38:00,
2013-06-21 15:43:00,82.9,54.8,30.09,SW,225,3.6,3.6,38,0.00,,---,0.00,VWS V14.00,2013-06-21 19:43:00,
2013-06-21 15:46:00,82.8,54.6,30.09,SSE,158,1.1,1.6,38,0.00,,---,0.00,VWS V14.00,2013-06-21 19:46:00,
2013-06-21 15:52:00,82.9,55.5,30.09,South,180,2.5,2.5,39,0.00,,---,0.00,VWS V14.00,2013-06-21 19:52:00,
2013-06-21 15:57:00,82.9,55.5,30.09,WSW,248,3.1,4.0,39,0.00,,---,0.00,VWS V14.00,2013-06-21 19:57:00,
2013-06-21 16:02:00,82.8,54.6,30.09,SSW,202,2.7,2.7,38,0.00,,---,0.00,VWS V14.00,2013-06-21 20:02:00,
2013-06-21 16:07:00,82.4,53.5,30.09,SW,225,3.4,3.4,37,0.00,,---,0.00,VWS V14.00,2013-06-21 20:07:00,
2013-06-21 16:12:00,82.2,52.6,30.09,SSW,202,2.7,4.7,36,0.00,,---,0.00,VWS V14.00,2013-06-21 20:12:00,
2013-06-21 16:18:00,81.7,52.2,30.09,SW,225,2.5,2.5,36,0.00,,---,0.00,VWS V14.00,2013-06-21 20:18:00,
2013-06-21 16:19:00,81.7,52.2,30.09,SSW,202,2.7,4.3,36,0.00,,---,0.00,VWS V14.00,2013-06-21 20:19:00,
2013-06-21 16:24:00,81.9,53.1,30.09,SW,225,4.7,4.7,37,0.00,,---,0.00,VWS V14.00,2013-06-21 20:24:00,
2013-06-21 16:29:00,81.9,53.1,30.09,SSW,202,3.4,3.4,37,0.00,,---,0.00,VWS V14.00,2013-06-21 20:29:00,
2013-06-21 16:35:00,81.5,52.7,30.09,SSW,202,3.4,3.4,37,0.00,,---,0.00,VWS V14.00,2013-06-21 20:35:00,
2013-06-21 16:40:00,81.3,52.6,30.09,South,180,2.5,2.9,37,0.00,,---,0.00,VWS V14.00,2013-06-21 20:40:00,
2013-06-21 16:45:00,81.1,52.4,30.06,SSW,202,4.3,4.3,37,0.00,,---,0.00,VWS V14.00,2013-06-21 20:45:00,
2013-06-21 16:51:00,81.0,52.3,30.06,SSW,202,2.5,2.9,37,0.00,,---,0.00,VWS V14.00,2013-06-21 20:51:00,
2013-06-21 16:56:00,80.8,52.8,30.06,South,180,1.6,1.6,38,0.00,,---,0.00,VWS V14.00,2013-06-21 20:56:00,
2013-06-21 17:01:00,80.8,53.5,30.06,WNW,292,2.9,2.9,39,0.00,,---,0.00,VWS V14.00,2013-06-21 21:01:00,
2013-06-21 17:05:00,81.0,53.7,30.06,West,270,1.6,1.6,39,0.00,,---,0.00,VWS V14.00,2013-06-21 21:05:00,
2013-06-21 17:10:00,81.1,53.9,30.06,SSE,158,1.3,3.1,39,0.00,,---,0.00,VWS V14.00,2013-06-21 21:10:00,
2013-06-21 17:15:00,81.5,54.2,30.06,SSW,202,2.2,2.9,39,0.00,,---,0.00,VWS V14.00,2013-06-21 21:15:00,
2013-06-21 17:20:00,81.1,53.2,30.06,SSW,202,2.7,2.7,38,0.00,,---,0.00,VWS V14.00,2013-06-21 21:20:00,
2013-06-21 17:25:00,80.6,52.0,30.06,SSW,202,2.5,3.1,37,0.00,,---,0.00,VWS V14.00,2013-06-21 21:25:00,
2013-06-21 17:31:00,80.4,51.8,30.06,SSW,202,4.7,4.7,37,0.00,,---,0.00,VWS V14.00,2013-06-21 21:31:00,
2013-06-21 17:36:00,80.4,51.8,30.06,SSW,202,3.1,3.1,37,0.00,,---,0.00,VWS V14.00,2013-06-21 21:36:00,
2013-06-21 17:41:00,80.4,51.8,30.06,SW,225,1.6,2.9,37,0.00,,---,0.00,VWS V14.00,2013-06-21 21:41:00,
2013-06-21 17:48:00,80.1,51.5,30.06,SSW,202,3.4,3.4,37,0.00,,---,0.00,VWS V14.00,2013-06-21 21:48:00,
2013-06-21 17:53:00,79.7,51.2,30.06,SW,225,3.4,3.4,37,0.00,,---,0.00,VWS V14.00,2013-06-21 21:53:00,
2013-06-21 17:59:00,79.2,50.7,30.03,SW,225,3.1,4.3,37,0.00,,---,0.00,VWS V14.00,2013-06-21 21:59:00,
2013-06-21 18:04:00,79.0,50.5,30.03,SSW,202,2.2,2.2,37,0.00,,---,0.00,VWS V14.00,2013-06-21 22:04:00,
2013-06-21 18:10:00,79.2,51.4,30.03,SSW,202,2.7,3.4,38,0.00,,---,0.00,VWS V14.00,2013-06-21 22:10:00,
2013-06-21 18:15:00,79.5,51.7,30.03,SW,225,1.3,1.3,38,0.00,,---,0.00,VWS V14.00,2013-06-21 22:15:00,
2013-06-21 18:20:00,79.2,51.4,30.03,WSW,248,1.3,2.7,38,0.00,,---,0.00,VWS V14.00,2013-06-21 22:20:00,
2013-06-21 18:26:00,79.2,52.1,30.03,South,180,2.0,2.0,39,0.00,,---,0.00,VWS V14.00,2013-06-21 22:26:00,
2013-06-21 18:31:00,79.2,52.8,30.03,SW,225,2.0,2.7,40,0.00,,---,0.00,VWS V14.00,2013-06-21 22:31:00,
2013-06-21 18:36:00,79.0,51.9,30.03,SSW,202,1.1,2.5,39,0.00,,---,0.00,VWS V14.00,2013-06-21 22:36:00,
2013-06-21 18:42:00,78.6,52.3,30.03,SSW,202,1.1,1.6,40,0.00,,---,0.00,VWS V14.00,2013-06-21 22:42:00,
2013-06-21 18:48:00,78.6,52.3,30.06,WSW,248,1.6,2.2,40,0.00,,---,0.00,VWS V14.00,2013-06-21 22:48:00,
2013-06-21 18:54:00,78.3,52.0,30.06,SSE,158,2.0,3.4,40,0.00,,---,0.00,VWS V14.00,2013-06-21 22:54:00,
2013-06-21 18:59:00,78.1,51.8,30.06,WSW,248,1.1,2.7,40,0.00,,---,0.00,VWS V14.00,2013-06-21 22:59:00,
2013-06-21 19:04:00,77.7,51.5,30.06,SW,225,2.2,3.1,40,0.00,,---,0.00,VWS V14.00,2013-06-21 23:04:00,
2013-06-21 19:10:00,77.9,51.7,30.06,SSW,202,1.3,2.5,40,0.00,,---,0.00,VWS V14.00,2013-06-21 23:10:00,
2013-06-21 19:15:00,77.9,51.7,30.06,SSW,202,1.6,2.0,40,0.00,,---,0.00,VWS V14.00,2013-06-21 23:15:00,
2013-06-21 19:20:00,77.9,51.7,30.06,South,180,2.0,2.7,40,0.00,,---,0.00,VWS V14.00,2013-06-21 23:20:00,
2013-06-21 19:25:00,77.9,51.7,30.06,WSW,248,1.1,2.0,40,0.00,,---,0.00,VWS V14.00,2013-06-21 23:25:00,
2013-06-21 19:30:00,77.7,52.2,30.03,SW,225,1.1,2.7,41,0.00,,---,0.00,VWS V14.00,2013-06-21 23:30:00,
2013-06-21 19:36:00,77.5,51.3,30.03,SSW,202,1.6,3.4,40,0.00,,---,0.00,VWS V14.00,2013-06-21 23:36:00,
2013-06-21 19:41:00,77.0,51.5,30.03,SSW,202,2.0,2.0,41,0.00,,---,0.00,VWS V14.00,2013-06-21 23:41:00,
2013-06-21 19:46:00,76.6,51.2,30.03,SSW,202,1.6,1.6,41,0.00,,---,0.00,VWS V14.00,2013-06-21 23:46:00,
2013-06-21 19:52:00,76.6,51.2,30.03,SSW,202,1.3,1.6,41,0.00,,---,0.00,VWS V14.00,2013-06-21 23:52:00,
2013-06-21 19:57:00,76.3,50.9,30.03,WSW,248,0.9,0.9,41,0.00,,---,0.00,VWS V14.00,2013-06-21 23:57:00,
2013-06-21 20:02:00,76.3,51.5,30.03,SW,225,2.5,2.5,42,0.00,,---,0.00,VWS V14.00,2013-06-22 00:02:00,
2013-06-21 20:07:00,75.9,51.2,30.03,SW,225,1.3,1.3,42,0.00,,---,0.00,VWS V14.00,2013-06-22 00:07:00,
2013-06-21 20:12:00,75.4,50.1,30.03,SSW,202,1.1,1.1,41,0.00,,---,0.00,VWS V14.00,2013-06-22 00:12:00,
2013-06-21 20:17:00,75.4,50.7,30.03,SSW,202,1.3,1.6,42,0.00,,---,0.00,VWS V14.00,2013-06-22 00:17:00,
2013-06-21 20:22:00,75.0,50.4,30.03,WSW,248,0.9,0.9,42,0.00,,---,0.00,VWS V14.00,2013-06-22 00:22:00,
2013-06-21 20:27:00,74.8,50.2,30.03,WSW,248,1.3,1.3,42,0.00,,---,0.00,VWS V14.00,2013-06-22 00:27:00,
2013-06-21 20:33:00,74.5,49.9,30.03,SSW,202,1.3,1.3,42,0.00,,---,0.00,VWS V14.00,2013-06-22 00:33:00,
2013-06-21 20:38:00,74.5,50.5,30.03,SSW,202,1.3,1.3,43,0.00,,---,0.00,VWS V14.00,2013-06-22 00:38:00,
2013-06-21 20:43:00,74.8,50.9,30.03,WSW,248,1.3,1.6,43,0.00,,---,0.00,VWS V14.00,2013-06-22 00:43:00,
2013-06-21 20:48:00,74.8,50.9,30.03,WSW,248,1.3,3.1,43,0.00,,---,0.00,VWS V14.00,2013-06-22 00:48:00,
2013-06-21 20:54:00,74.5,50.5,30.03,WSW,248,0.0,1.3,43,0.00,,---,0.00,VWS V14.00,2013-06-22 00:54:00,
2013-06-21 20:59:00,73.8,50.5,30.03,WSW,248,1.1,2.9,44,0.00,,---,0.00,VWS V14.00,2013-06-22 00:59:00,
2013-06-21 21:05:00,73.6,50.3,30.03,SSW,202,0.0,1.3,44,0.00,,---,0.00,VWS V14.00,2013-06-22 01:05:00,
2013-06-21 21:10:00,72.1,49.7,30.03,WSW,248,1.6,1.6,45,0.00,,---,0.00,VWS V14.00,2013-06-22 01:10:00,
2013-06-21 21:15:00,72.9,50.3,30.03,SSW,202,0.0,0.0,45,0.00,,---,0.00,VWS V14.00,2013-06-22 01:15:00,
2013-06-21 21:20:00,73.4,50.8,30.03,SSW,202,2.0,2.0,45,0.00,,---,0.00,VWS V14.00,2013-06-22 01:20:00,
2013-06-21 21:25:00,73.2,50.6,30.03,SSW,202,0.0,0.0,45,0.00,,---,0.00,VWS V14.00,2013-06-22 01:25:00,
2013-06-21 21:30:00,72.9,50.9,30.03,WSW,248,0.9,1.6,46,0.00,,---,0.00,VWS V14.00,2013-06-22 01:30:00,
2013-06-21 21:35:00,72.0,50.7,30.03,SW,225,0.0,0.0,47,0.00,,---,0.00,VWS V14.00,2013-06-22 01:35:00,
2013-06-21 21:41:00,72.1,50.8,30.03,WSW,248,0.0,0.0,47,0.00,,---,0.00,VWS V14.00,2013-06-22 01:41:00,
2013-06-21 21:46:00,70.2,50.7,30.03,WSW,248,0.0,0.0,50,0.00,,---,0.00,VWS V14.00,2013-06-22 01:46:00,
2013-06-21 21:52:00,69.4,50.5,30.03,WSW,248,0.0,0.0,51,0.00,,---,0.00,VWS V14.00,2013-06-22 01:52:00,
2013-06-21 21:57:00,69.3,51.4,30.03,WSW,248,0.0,0.0,53,0.00,,---,0.00,VWS V14.00,2013-06-22 01:57:00,
2013-06-21 22:02:00,68.9,51.6,30.06,WSW,248,0.0,1.3,54,0.00,,---,0.00,VWS V14.00,2013-06-22 02:02:00,
2013-06-21 22:07:00,68.9,52.1,30.06,WSW,248,0.9,2.7,55,0.00,,---,0.00,VWS V14.00,2013-06-22 02:07:00,
2013-06-21 22:13:00,68.7,52.4,30.06,WSW,248,0.0,0.0,56,0.00,,---,0.00,VWS V14.00,2013-06-22 02:13:00,
2013-06-21 22:18:00,68.7,52.9,30.06,WSW,248,1.1,1.1,57,0.00,,---,0.00,VWS V14.00,2013-06-22 02:18:00,
2013-06-21 22:23:00,68.5,52.7,30.06,WNW,292,2.5,2.5,57,0.00,,---,0.00,VWS V14.00,2013-06-22 02:23:00,
2013-06-21 22:28:00,68.4,52.5,30.06,WSW,248,1.6,2.2,57,0.00,,---,0.00,VWS V14.00,2013-06-22 02:28:00,
2013-06-21 22:33:00,68.4,53.0,30.06,West,270,2.5,2.5,58,0.00,,---,0.00,VWS V14.00,2013-06-22 02:33:00,
2013-06-21 22:39:00,68.2,52.9,30.06,West,270,1.6,1.6,58,0.00,,---,0.00,VWS V14.00,2013-06-22 02:39:00,
2013-06-21 22:44:00,68.0,53.2,30.06,WSW,248,2.7,2.7,59,0.00,,---,0.00,VWS V14.00,2013-06-22 02:44:00,
2013-06-21 22:50:00,68.0,53.6,30.06,WSW,248,1.1,2.7,60,0.00,,---,0.00,VWS V14.00,2013-06-22 02:50:00,
2013-06-21 22:55:00,67.8,53.9,30.06,WSW,248,0.9,4.0,61,0.00,,---,0.00,VWS V14.00,2013-06-22 02:55:00,
2013-06-21 23:00:00,67.8,54.3,30.06,WSW,248,2.2,2.2,62,0.00,,---,0.00,VWS V14.00,2013-06-22 03:00:00,
2013-06-21 23:06:00,67.6,54.2,30.06,WSW,248,1.3,1.3,62,0.00,,---,0.00,VWS V14.00,2013-06-22 03:06:00,
2013-06-21 23:11:00,67.6,54.6,30.06,WSW,248,2.0,2.0,63,0.00,,---,0.00,VWS V14.00,2013-06-22 03:11:00,
2013-06-21 23:16:00,67.5,54.9,30.06,West,270,0.0,0.9,64,0.00,,---,0.00,VWS V14.00,2013-06-22 03:16:00,
2013-06-21 23:21:00,67.3,54.7,30.06,WSW,248,2.5,2.5,64,0.00,,---,0.00,VWS V14.00,2013-06-22 03:21:00,
2013-06-21 23:26:00,67.3,55.1,30.06,WNW,292,2.5,2.5,65,0.00,,---,0.00,VWS V14.00,2013-06-22 03:26:00,
2013-06-21 23:31:00,67.1,55.0,30.06,WSW,248,2.0,2.7,65,0.00,,---,0.00,VWS V14.00,2013-06-22 03:31:00,
2013-06-21 23:36:00,67.1,55.0,30.06,WNW,292,2.0,2.0,65,0.00,,---,0.00,VWS V14.00,2013-06-22 03:36:00,
2013-06-21 23:41:00,66.9,54.8,30.06,WNW,292,1.3,2.0,65,0.00,,---,0.00,VWS V14.00,2013-06-22 03:41:00,
2013-06-21 23:46:00,66.9,55.2,30.06,WSW,248,2.0,2.0,66,0.00,,---,0.00,VWS V14.00,2013-06-22 03:46:00,
2013-06-21 23:51:00,66.7,55.0,30.06,West,270,2.0,2.0,66,0.00,,---,0.00,VWS V14.00,2013-06-22 03:51:00,
2013-06-21 23:56:00,66.7,56.3,30.06,WNW,292,1.6,6.0,69,0.00,,---,0.00,VWS V14.00,2013-06-22 03:56:00,